createdAt,value
2022-12-15T00:01:19.640Z,31.00
2022-12-15T00:04:08.785Z,27.30
2022-12-15T00:06:58.161Z,28.20
2022-12-15T00:09:47.357Z,26.80
2022-12-15T00:12:36.663Z,26.50
2022-12-15T00:15:27.884Z,27.80
2022-12-15T00:18:17.458Z,28.50
2022-12-15T00:21:06.840Z,29.80
2022-12-15T00:23:56.338Z,28.70
2022-12-15T00:26:45.572Z,26.90
2022-12-15T00:29:34.827Z,28.80
2022-12-15T00:32:24.954Z,26.50
2022-12-15T00:35:14.588Z,26.80
2022-12-15T00:38:03.998Z,28.80
2022-12-15T00:40:35.694Z,28.60
2022-12-15T00:43:28.503Z,29.00
2022-12-15T00:46:18.480Z,27.70
2022-12-15T00:48:51.449Z,28.80
2022-12-15T00:51:37.238Z,27.50
2022-12-15T00:54:26.938Z,30.00
2022-12-15T00:57:16.349Z,27.80
2022-12-15T01:00:05.551Z,27.70
2022-12-15T01:02:55.426Z,28.00
2022-12-15T01:05:45.725Z,27.60
2022-12-15T01:08:35.470Z,26.70
2022-12-15T01:11:27.136Z,24.80
2022-12-15T01:14:16.594Z,25.30
2022-12-15T01:17:06.330Z,25.60
2022-12-15T01:19:56.084Z,25.10
2022-12-15T01:22:27.749Z,25.10
2022-12-15T01:24:59.362Z,22.90
2022-12-15T01:27:31.123Z,24.50
2022-12-15T01:30:02.915Z,24.60
2022-12-15T01:32:34.649Z,22.60
2022-12-15T01:35:07.521Z,21.20
2022-12-15T01:37:39.219Z,22.10
2022-12-15T01:40:35.439Z,19.50
2022-12-15T01:43:10.876Z,21.30
2022-12-15T01:45:50.286Z,21.60
2022-12-15T01:48:30.984Z,20.90
2022-12-15T01:51:07.492Z,21.60
2022-12-15T01:53:44.547Z,20.40
2022-12-15T01:56:18.060Z,20.80
2022-12-15T02:01:22.118Z,19.60
2022-12-15T02:03:54.228Z,19.40
2022-12-15T02:06:29.208Z,20.30
2022-12-15T02:09:02.666Z,21.20
2022-12-15T02:14:38.471Z,19.10
2022-12-15T02:17:23.176Z,19.60
2022-12-15T02:20:27.424Z,20.80
2022-12-15T02:23:41.168Z,21.10
2022-12-15T02:26:51.808Z,19.70
2022-12-15T02:29:42.592Z,21.10
2022-12-15T02:32:17.645Z,20.80
2022-12-15T02:34:56.027Z,19.30
2022-12-15T02:37:33.090Z,21.20
2022-12-15T02:40:07.125Z,21.50
2022-12-15T02:42:44.705Z,22.40
2022-12-15T02:45:21.617Z,22.80
2022-12-15T02:48:02.385Z,19.50
2022-12-15T02:50:50.100Z,21.20
2022-12-15T02:53:39.866Z,21.80
2022-12-15T02:56:19.087Z,22.40
2022-12-15T02:59:03.929Z,21.90
2022-12-15T03:01:41.681Z,22.30
2022-12-15T03:04:17.608Z,22.60
2022-12-15T03:07:01.249Z,23.70
2022-12-15T03:09:36.984Z,22.50
2022-12-15T03:12:11.040Z,23.30
2022-12-15T03:14:42.937Z,24.20
2022-12-15T03:17:14.600Z,24.40
2022-12-15T03:19:46.465Z,23.40
2022-12-15T03:22:22.069Z,25.70
2022-12-15T03:24:53.728Z,24.50
2022-12-15T03:27:25.422Z,24.80
2022-12-15T03:29:57.575Z,25.70
2022-12-15T03:32:29.353Z,25.90
2022-12-15T03:35:01.081Z,24.40
2022-12-15T03:37:32.929Z,26.10
2022-12-15T03:40:04.798Z,27.90
2022-12-15T03:42:51.740Z,26.70
2022-12-15T03:45:25.477Z,28.30
2022-12-15T03:48:00.927Z,27.90
2022-12-15T03:50:33.105Z,28.30
2022-12-15T03:53:06.584Z,29.70
2022-12-15T03:58:08.592Z,28.60
2022-12-15T04:00:40.345Z,28.80
2022-12-15T04:03:12.888Z,30.00
2022-12-15T04:05:44.752Z,30.00
2022-12-15T04:08:16.636Z,30.70
2022-12-15T04:10:48.600Z,30.80
2022-12-15T04:13:20.437Z,31.80
2022-12-15T04:15:52.148Z,33.00
2022-12-15T04:18:23.917Z,32.90
2022-12-15T04:20:56.169Z,32.80
2022-12-15T04:23:28.142Z,32.40
2022-12-15T04:26:17.585Z,31.20
2022-12-15T04:29:07.170Z,33.20
2022-12-15T04:31:56.576Z,34.00
2022-12-15T04:34:46.201Z,30.10
2022-12-15T04:37:36.074Z,31.40
2022-12-15T04:40:28.107Z,29.10
2022-12-15T04:43:17.509Z,31.60
2022-12-15T04:46:06.787Z,29.80
2022-12-15T04:48:56.308Z,29.80
2022-12-15T04:51:45.860Z,30.60
2022-12-15T04:54:35.458Z,28.00
2022-12-15T04:57:26.202Z,29.20
2022-12-15T05:00:15.853Z,27.60
2022-12-15T05:03:05.170Z,26.00
2022-12-15T05:05:54.352Z,27.80
2022-12-15T05:08:43.947Z,26.40
2022-12-15T05:11:33.530Z,25.90
2022-12-15T05:14:23.390Z,26.60
2022-12-15T05:17:13.421Z,25.70
2022-12-15T05:20:03.022Z,29.40
2022-12-15T05:22:52.755Z,27.10
2022-12-15T05:25:42.107Z,27.80
2022-12-15T05:28:32.677Z,27.40
2022-12-15T05:31:24.606Z,26.90
2022-12-15T05:34:04.447Z,26.30
2022-12-15T05:36:37.733Z,26.10
2022-12-15T05:39:09.624Z,26.50
2022-12-15T05:41:41.451Z,27.50
2022-12-15T05:44:13.392Z,28.00
2022-12-15T05:46:45.584Z,27.40
2022-12-15T05:49:19.134Z,28.10
2022-12-15T05:54:22.229Z,26.20
2022-12-15T05:56:53.862Z,27.20
2022-12-15T05:59:26.285Z,29.20
2022-12-15T06:01:58.178Z,27.40
2022-12-15T06:04:31.339Z,30.00
2022-12-15T06:07:03.226Z,30.60
2022-12-15T06:09:34.918Z,29.40
2022-12-15T06:12:07.389Z,29.50
2022-12-15T06:14:39.133Z,29.90
2022-12-15T06:17:10.939Z,29.00
2022-12-15T06:19:42.641Z,28.80
2022-12-15T06:22:14.263Z,28.90
2022-12-15T06:24:46.093Z,29.00
2022-12-15T06:27:17.810Z,27.20
2022-12-15T06:29:49.617Z,28.80
2022-12-15T06:32:23.396Z,29.50
2022-12-15T06:34:54.981Z,30.00
2022-12-15T06:37:26.720Z,30.40
2022-12-15T06:39:58.413Z,29.50
2022-12-15T06:42:30.149Z,31.30
2022-12-15T06:45:01.846Z,29.10
2022-12-15T06:47:34.474Z,28.80
2022-12-15T06:50:07.831Z,29.40
2022-12-15T06:52:39.482Z,29.80
2022-12-15T06:55:11.966Z,29.60
2022-12-15T06:57:43.624Z,28.50
2022-12-15T07:00:17.107Z,30.40
2022-12-15T07:05:23.205Z,26.30
2022-12-15T07:07:55.907Z,29.20
2022-12-15T07:10:27.761Z,28.70
2022-12-15T07:13:00.043Z,29.30
2022-12-15T07:15:32.655Z,27.90
2022-12-15T07:18:04.694Z,26.30
2022-12-15T07:20:36.433Z,27.40
2022-12-15T07:23:12.243Z,28.00
2022-12-15T07:25:43.909Z,27.20
2022-12-15T07:28:15.713Z,28.90
2022-12-15T07:30:48.165Z,28.30
2022-12-15T07:33:19.983Z,30.00
2022-12-15T07:35:57.753Z,31.50
2022-12-15T07:38:29.919Z,32.40
2022-12-15T07:41:05.582Z,30.90
2022-12-15T07:43:38.446Z,30.60
2022-12-15T07:46:10.318Z,30.50
2022-12-15T07:48:42.053Z,30.30
2022-12-15T07:51:19.267Z,28.50
2022-12-15T07:53:53.033Z,28.10
2022-12-15T07:56:24.627Z,28.50
2022-12-15T07:58:56.378Z,26.70
2022-12-15T08:01:28.809Z,27.00
2022-12-15T08:04:00.701Z,26.30
2022-12-15T08:06:32.670Z,27.60
2022-12-15T08:09:04.462Z,30.10
2022-12-15T08:11:36.129Z,27.50
2022-12-15T08:14:13.322Z,29.20
2022-12-15T08:16:50.867Z,27.70
2022-12-15T08:19:22.950Z,26.70
2022-12-15T08:21:54.690Z,28.40
2022-12-15T08:24:26.630Z,29.80
2022-12-15T08:26:59.947Z,30.90
2022-12-15T08:29:51.011Z,28.10
2022-12-15T08:32:23.338Z,27.50
2022-12-15T08:34:55.069Z,26.60
2022-12-15T08:37:27.035Z,28.50
2022-12-15T08:39:58.614Z,29.80
2022-12-15T08:42:33.752Z,29.90
2022-12-15T08:45:06.415Z,30.80
2022-12-15T08:47:38.488Z,29.60
2022-12-15T08:50:12.033Z,30.90
2022-12-15T08:55:35.392Z,24.10
2022-12-15T08:58:07.093Z,27.00
2022-12-15T09:00:38.780Z,26.70
2022-12-15T09:03:10.442Z,28.40
2022-12-15T09:05:42.132Z,26.10
2022-12-15T09:08:13.764Z,26.60
2022-12-15T09:10:45.637Z,27.90
2022-12-15T09:13:17.373Z,25.60
2022-12-15T09:16:12.465Z,25.70
2022-12-15T09:18:47.735Z,23.40
2022-12-15T09:21:24.559Z,26.80
2022-12-15T09:24:00.664Z,29.50
2022-12-15T09:26:35.515Z,28.80
2022-12-15T09:29:07.424Z,26.60
2022-12-15T09:31:44.493Z,26.20
2022-12-15T09:34:18.000Z,24.90
2022-12-15T09:39:20.746Z,24.30
2022-12-15T09:42:00.272Z,26.10
2022-12-15T09:44:33.609Z,23.60
2022-12-15T09:47:15.998Z,23.90
2022-12-15T09:49:56.515Z,23.60
2022-12-15T09:52:33.182Z,24.40
2022-12-15T09:55:17.839Z,23.40
2022-12-15T09:57:55.121Z,23.70
2022-12-15T10:00:30.877Z,24.30
2022-12-15T10:03:42.682Z,25.00
2022-12-15T10:06:21.467Z,24.20
2022-12-15T10:08:59.285Z,23.20
2022-12-15T10:11:42.301Z,27.00
2022-12-15T10:14:22.795Z,24.10
2022-12-15T10:17:01.340Z,28.50
2022-12-15T10:19:42.854Z,25.20
2022-12-15T10:22:18.813Z,28.00
2022-12-15T10:28:07.701Z,26.10
2022-12-15T10:30:47.000Z,28.40
2022-12-15T10:33:21.890Z,30.30
2022-12-15T10:35:56.277Z,29.10
2022-12-15T10:38:47.304Z,29.70
2022-12-15T10:41:26.125Z,24.40
2022-12-15T10:43:57.723Z,25.20
2022-12-15T10:46:32.809Z,24.20
2022-12-15T10:49:27.875Z,24.10
2022-12-15T10:52:02.441Z,24.50
2022-12-15T10:54:44.703Z,24.50
2022-12-15T10:57:21.655Z,26.90
2022-12-15T10:59:53.505Z,25.80
2022-12-15T11:02:34.404Z,26.10
2022-12-15T11:05:24.599Z,24.10
2022-12-15T11:08:17.451Z,25.00
2022-12-15T11:11:13.531Z,23.90
2022-12-15T11:14:06.158Z,25.40
2022-12-15T11:16:47.086Z,28.60
2022-12-15T11:19:32.248Z,25.10
2022-12-15T11:22:11.260Z,27.40
2022-12-15T11:24:48.929Z,30.40
2022-12-15T11:27:28.397Z,26.20
2022-12-15T11:30:11.542Z,26.40
2022-12-15T11:32:49.784Z,25.80
2022-12-15T11:35:25.164Z,28.70
2022-12-15T11:38:05.130Z,27.80
2022-12-15T11:40:45.235Z,28.70
2022-12-15T11:43:38.096Z,28.40
2022-12-15T11:46:22.792Z,27.90
2022-12-15T11:49:15.415Z,25.60
2022-12-15T11:51:53.879Z,27.90
2022-12-15T11:54:34.602Z,25.90
2022-12-15T11:57:31.650Z,28.60
2022-12-15T12:00:11.859Z,28.30
2022-12-15T12:03:03.340Z,29.70
2022-12-15T12:05:55.777Z,28.30
2022-12-15T12:08:40.767Z,27.90
2022-12-15T12:11:17.129Z,29.10
2022-12-15T12:14:11.483Z,30.10
2022-12-15T12:16:50.413Z,30.60
2022-12-15T12:19:28.686Z,29.40
2022-12-15T12:22:06.999Z,28.50
2022-12-15T12:24:44.891Z,31.50
2022-12-15T12:27:33.063Z,29.10
2022-12-15T12:30:12.340Z,29.90
2022-12-15T12:32:50.639Z,30.80
2022-12-15T12:35:32.844Z,31.80
2022-12-15T12:38:07.056Z,32.90
2022-12-15T12:43:50.231Z,30.20
2022-12-15T12:46:27.678Z,29.80
2022-12-15T12:49:05.021Z,30.50
2022-12-15T12:51:40.092Z,30.40
2022-12-15T12:54:44.607Z,29.40
2022-12-15T13:00:19.585Z,27.20
2022-12-15T13:03:11.021Z,28.40
2022-12-15T13:05:45.203Z,30.00
2022-12-15T13:08:50.966Z,31.00
2022-12-15T13:11:56.633Z,27.70
2022-12-15T13:14:51.878Z,28.20
2022-12-15T13:17:31.316Z,24.90
2022-12-15T13:20:27.111Z,27.10
2022-12-15T13:23:36.420Z,27.60
2022-12-15T13:26:21.062Z,24.70
2022-12-15T13:31:42.217Z,23.50
2022-12-15T13:34:29.582Z,24.50
2022-12-15T13:37:08.154Z,25.40
2022-12-15T13:39:59.389Z,33.20
2022-12-15T13:42:52.900Z,28.80
2022-12-15T13:45:44.437Z,28.20
2022-12-15T13:48:28.132Z,26.20
2022-12-15T13:51:06.229Z,27.60
2022-12-15T13:53:44.622Z,29.10
2022-12-15T13:56:42.629Z,31.80
2022-12-15T13:59:24.237Z,30.70
2022-12-15T14:01:56.642Z,31.10
2022-12-15T14:04:29.000Z,41.20
2022-12-15T14:07:03.153Z,31.90
2022-12-15T14:09:39.355Z,31.10
2022-12-15T14:12:15.276Z,29.20
2022-12-15T14:14:52.621Z,28.50
2022-12-15T14:17:28.478Z,29.80
2022-12-15T14:20:11.880Z,28.20
2022-12-15T14:22:45.103Z,28.40
2022-12-15T14:27:51.400Z,27.30
2022-12-15T14:30:26.861Z,29.60
2022-12-15T14:33:02.809Z,32.40
2022-12-15T14:35:41.227Z,33.00
2022-12-15T14:38:17.718Z,34.90
2022-12-15T14:40:50.789Z,34.10
2022-12-15T14:43:25.907Z,33.80
2022-12-15T14:46:08.743Z,37.00
2022-12-15T14:48:45.299Z,33.80
2022-12-15T14:51:17.347Z,35.20
2022-12-15T14:53:53.445Z,45.60
2022-12-15T14:56:31.146Z,48.40
2022-12-15T14:59:05.895Z,45.20
2022-12-15T15:01:57.847Z,44.00
2022-12-15T15:04:33.463Z,46.50
2022-12-15T15:07:08.371Z,48.10
2022-12-15T15:09:47.084Z,46.20
2022-12-15T15:12:22.356Z,50.00
2022-12-15T15:15:04.864Z,50.30
2022-12-15T15:17:43.908Z,48.50
2022-12-15T15:20:24.044Z,51.10
2022-12-15T15:23:16.729Z,51.10
2022-12-15T15:25:56.579Z,58.90
2022-12-15T15:28:36.990Z,55.70
2022-12-15T15:34:06.426Z,59.50
2022-12-15T15:36:40.200Z,65.10
2022-12-15T15:41:47.874Z,58.10
2022-12-15T15:44:19.546Z,86.90
2022-12-15T15:46:53.872Z,52.60
2022-12-15T15:49:32.170Z,42.70
2022-12-15T15:52:07.896Z,69.80
2022-12-15T15:54:39.774Z,66.80
2022-12-15T15:57:15.291Z,53.10
2022-12-15T15:59:51.607Z,44.00
2022-12-15T16:02:23.609Z,42.20
2022-12-15T16:04:56.981Z,41.40
2022-12-15T16:07:30.440Z,42.70
2022-12-15T16:12:37.279Z,39.50
2022-12-15T16:15:16.764Z,42.20
2022-12-15T16:17:48.739Z,42.70
2022-12-15T16:20:23.196Z,48.90
2022-12-15T16:22:59.661Z,41.70
2022-12-15T16:25:43.865Z,40.10
2022-12-15T16:28:28.067Z,36.90
2022-12-15T16:31:01.628Z,40.30
2022-12-15T16:33:33.671Z,46.50
2022-12-15T16:36:08.238Z,46.60
2022-12-15T16:38:41.152Z,46.90
2022-12-15T16:41:17.963Z,44.90
2022-12-15T16:43:49.979Z,47.20
2022-12-15T16:46:21.730Z,55.90
2022-12-15T16:48:53.754Z,65.50
2022-12-15T16:51:37.116Z,57.20
2022-12-15T16:54:16.702Z,55.90
2022-12-15T16:56:48.293Z,54.60
2022-12-15T16:59:37.633Z,54.10
2022-12-15T17:02:28.848Z,52.20
2022-12-15T17:05:01.217Z,51.50
2022-12-15T17:07:33.110Z,50.70
2022-12-15T17:10:05.321Z,52.30
2022-12-15T17:12:36.964Z,54.90
2022-12-15T17:15:17.169Z,54.90
2022-12-15T17:17:49.106Z,56.50
2022-12-15T17:20:29.379Z,52.30
2022-12-15T17:23:04.800Z,53.50
2022-12-15T17:26:09.724Z,51.10
2022-12-15T17:28:33.576Z,56.20
2022-12-15T17:31:05.767Z,56.60
2022-12-15T17:33:37.708Z,52.40
2022-12-15T17:36:19.957Z,48.50
2022-12-15T17:38:57.969Z,52.80
2022-12-15T17:41:58.655Z,54.80
2022-12-15T17:44:37.471Z,51.80
2022-12-15T17:47:10.704Z,51.40
2022-12-15T17:49:43.019Z,49.30
2022-12-15T17:52:26.845Z,52.80
2022-12-15T17:54:59.157Z,58.60
2022-12-15T17:57:32.068Z,64.60
2022-12-15T18:00:09.244Z,51.50
2022-12-15T18:02:40.959Z,53.40
2022-12-15T18:05:13.414Z,48.10
2022-12-15T18:07:46.146Z,45.30
2022-12-15T18:10:40.545Z,47.20
2022-12-15T18:13:18.633Z,48.20
2022-12-15T18:15:51.057Z,48.30
2022-12-15T18:18:24.428Z,49.40
2022-12-15T18:21:00.601Z,52.70
2022-12-15T18:23:33.854Z,59.90
2022-12-15T18:26:06.157Z,56.70
2022-12-15T18:28:38.152Z,58.40
2022-12-15T18:31:19.044Z,59.60
2022-12-15T18:33:51.338Z,53.50
2022-12-15T18:36:24.018Z,55.40
2022-12-15T18:38:55.753Z,51.00
2022-12-15T18:41:27.431Z,53.40
2022-12-15T18:43:59.108Z,55.40
2022-12-15T18:46:32.108Z,52.70
2022-12-15T18:49:03.821Z,50.40
2022-12-15T18:51:35.606Z,46.40
2022-12-15T18:54:07.559Z,46.30
2022-12-15T18:56:39.375Z,46.70
2022-12-15T18:59:16.899Z,48.00
2022-12-15T19:01:49.999Z,51.00
2022-12-15T19:04:21.982Z,50.20
2022-12-15T19:06:53.642Z,55.30
2022-12-15T19:09:25.435Z,55.90
2022-12-15T19:12:13.757Z,55.60
2022-12-15T19:14:47.077Z,56.30
2022-12-15T19:17:40.088Z,55.10
2022-12-15T19:20:36.476Z,48.50
2022-12-15T19:23:09.305Z,50.40
2022-12-15T19:25:43.381Z,53.60
2022-12-15T19:28:17.752Z,50.60
2022-12-15T19:30:49.801Z,52.40
2022-12-15T19:33:22.704Z,50.60
2022-12-15T19:35:58.239Z,44.20
2022-12-15T19:38:32.571Z,42.30
2022-12-15T19:41:05.057Z,44.50
2022-12-15T19:43:38.194Z,42.10
2022-12-15T19:46:14.577Z,36.80
2022-12-15T19:48:46.612Z,40.20
2022-12-15T19:51:23.179Z,41.60
2022-12-15T19:53:57.086Z,41.50
2022-12-15T19:56:29.356Z,43.70
2022-12-15T19:59:01.055Z,43.60
2022-12-15T20:01:32.798Z,42.20
2022-12-15T20:04:04.673Z,43.30
2022-12-15T20:06:37.424Z,44.20
2022-12-15T20:09:16.032Z,43.50
2022-12-15T20:11:47.955Z,43.90
2022-12-15T20:14:20.361Z,46.30
2022-12-15T20:16:52.109Z,43.10
2022-12-15T20:19:23.758Z,43.60
2022-12-15T20:21:55.343Z,49.20
2022-12-15T20:24:27.982Z,45.40
2022-12-15T20:27:00.689Z,46.30
2022-12-15T20:29:33.350Z,45.30
2022-12-15T20:32:09.766Z,45.20
2022-12-15T20:34:41.515Z,44.90
2022-12-15T20:37:22.669Z,42.80
2022-12-15T20:39:57.717Z,44.10
2022-12-15T20:42:29.704Z,42.10
2022-12-15T20:45:02.910Z,42.70
2022-12-15T20:47:53.814Z,36.70
2022-12-15T20:50:28.985Z,40.00
2022-12-15T20:53:00.835Z,40.40
2022-12-15T20:55:36.354Z,40.10
2022-12-15T20:58:08.101Z,37.80
2022-12-15T21:00:40.198Z,38.20
2022-12-15T21:03:22.278Z,37.70
2022-12-15T21:05:57.237Z,37.10
2022-12-15T21:08:30.851Z,39.70
2022-12-15T21:11:09.196Z,36.60
2022-12-15T21:13:41.097Z,35.90
2022-12-15T21:16:19.721Z,35.00
2022-12-15T21:21:48.418Z,34.90
2022-12-15T21:24:23.247Z,33.80
2022-12-15T21:26:55.266Z,33.60
2022-12-15T21:29:29.893Z,34.00
2022-12-15T21:32:01.556Z,35.50
2022-12-15T21:34:33.307Z,35.60
2022-12-15T21:37:07.576Z,34.10
2022-12-15T21:39:40.164Z,36.50
2022-12-15T21:42:16.807Z,35.30
2022-12-15T21:44:49.114Z,34.10
2022-12-15T21:47:51.933Z,33.30
2022-12-15T21:50:24.058Z,32.10
2022-12-15T21:52:57.357Z,33.60
2022-12-15T21:55:31.484Z,31.20
2022-12-15T21:58:03.167Z,35.10
2022-12-15T22:00:34.823Z,37.60
2022-12-15T22:03:11.600Z,37.40
2022-12-15T22:05:43.421Z,32.10
2022-12-15T22:08:20.800Z,32.60
2022-12-15T22:10:55.025Z,33.70
2022-12-15T22:13:26.684Z,33.40
2022-12-15T22:15:58.459Z,32.10
2022-12-15T22:18:30.871Z,32.30
2022-12-15T22:21:03.002Z,29.80
2022-12-15T22:23:35.035Z,30.90
2022-12-15T22:26:06.698Z,31.50
2022-12-15T22:28:39.005Z,29.80
2022-12-15T22:31:12.080Z,31.40
2022-12-15T22:33:44.030Z,29.50
2022-12-15T22:36:15.894Z,25.90
2022-12-15T22:38:47.776Z,28.30
2022-12-15T22:41:22.267Z,27.80
2022-12-15T22:43:56.978Z,26.40
2022-12-15T22:46:29.094Z,26.80
2022-12-15T22:49:00.823Z,27.80
2022-12-15T22:51:32.539Z,27.60
2022-12-15T22:54:11.838Z,29.70
2022-12-15T22:56:43.508Z,27.70
2022-12-15T22:59:24.360Z,24.90
2022-12-15T23:01:56.373Z,25.20
2022-12-15T23:04:28.280Z,25.30
2022-12-15T23:07:03.345Z,25.70
2022-12-15T23:09:34.963Z,16.80
2022-12-15T23:12:07.156Z,25.50
2022-12-15T23:14:56.564Z,24.00
2022-12-15T23:17:28.405Z,21.40
2022-12-15T23:19:59.988Z,21.90
2022-12-15T23:22:31.794Z,22.90
2022-12-15T23:25:04.229Z,23.30
2022-12-15T23:27:36.118Z,23.70
2022-12-15T23:30:10.400Z,24.80
2022-12-15T23:32:42.045Z,24.10
2022-12-15T23:35:14.204Z,22.70
2022-12-15T23:37:45.942Z,21.00
2022-12-15T23:40:21.386Z,22.00
2022-12-15T23:42:54.297Z,23.00
2022-12-15T23:45:26.959Z,22.00
2022-12-15T23:47:58.665Z,21.30
2022-12-15T23:50:30.427Z,22.00
2022-12-15T23:53:02.226Z,21.00
2022-12-15T23:55:35.550Z,21.60
2022-12-15T23:58:07.246Z,20.30
